Muir Army Air Field (Fort Indiantown Gap) Airport
KMUI : now visible

Airfield :











YOU CAN JOIN US ON...

 
LOGIN :

Register | Disclaimer

   EN    FR    IT 

 









Legend :    VFR   Marginal VFR   IFR   Intensive IFR   Very Intensive IFR
Visi :
Ceiling :
>= 8 km
>= 3000ft
5 to 8 km
1000 to 3000 ft
1500m to 5 km
500 to 1000 ft
800 to 1500m
200 to 500 ft
< 800m
< 200 ft
Symbols :   Thunderstorms  Fog  Heavy snow  Heavy precipitations  Wind > 20 kt






- Airport Elevation : 488 ft


KMUI - Muir Army Air Field (Fort Indiantown Gap)

CURRENT METAR :
  • 252356Z AUTO 18003KT 10SM CLR 23/16 A3013 RMK AO2 SLP204 T02290162 10247 20212 55006 $

EXPIRED METARs :
  • 252256Z AUTO 17005KT 10SM CLR 24/16 A3013 RMK AO2 SLP204 T02400162 $
  • 252156Z AUTO 17006KT 10SM CLR 25/17 A3013 RMK AO2 SLP204 T02460166 $

Expired Forecast.
KZNY FIR / North America



MET'MAP, your aeronautical weather chart ! - Copyright ORBIFLY December 2007 - Disclaimer

ORBIFLY MET'MAP TEAM :

Programming & Development : Alexandra Zaïnal
Concept & original design : Baudouin d'Aumeries
Assistance for programming : Marc-Olivier Méhu
Technical & hardware support : Manuel Goepfert

Contact : metmap@orbifly.com




SOURCES & CREDITS :

   NOAA       Earth
Advisory